createdAt,value
2018-02-14T00:00:39.650Z,8.72
2018-02-14T00:03:07.245Z,8.58
2018-02-14T00:05:34.796Z,8.55
2018-02-14T00:08:02.387Z,8.75
2018-02-14T00:10:29.926Z,8.84
2018-02-14T00:12:57.551Z,8.63
2018-02-14T00:15:25.095Z,7.98
2018-02-14T00:17:53.635Z,8.17
2018-02-14T00:20:21.184Z,8.43
2018-02-14T00:22:49.140Z,8.45
2018-02-14T00:25:17.454Z,8.51
2018-02-14T00:27:45.051Z,8.35
2018-02-14T00:30:12.599Z,8.48
2018-02-14T00:32:40.188Z,8.61
2018-02-14T00:35:07.741Z,8.72
2018-02-14T00:37:35.322Z,8.81
2018-02-14T00:40:02.873Z,8.79
2018-02-14T00:42:30.459Z,8.58
2018-02-14T00:44:58.013Z,8.27
2018-02-14T00:47:25.832Z,8.26
2018-02-14T00:49:53.383Z,8.56
2018-02-14T00:52:20.938Z,8.76
2018-02-14T00:54:48.530Z,8.81
2018-02-14T00:57:16.118Z,8.77
2018-02-14T00:59:43.795Z,8.87
2018-02-14T01:02:11.392Z,8.61
2018-02-14T01:04:38.931Z,7.96
2018-02-14T01:07:06.470Z,7.71
2018-02-14T01:09:34.046Z,7.88
2018-02-14T01:12:02.074Z,7.75
2018-02-14T01:14:29.663Z,7.87
2018-02-14T01:16:57.572Z,8.18
2018-02-14T01:19:25.198Z,8.20
2018-02-14T01:21:52.754Z,8.30
2018-02-14T01:24:20.895Z,8.54
2018-02-14T01:26:48.476Z,8.65
2018-02-14T01:29:30.852Z,8.55
2018-02-14T01:32:13.511Z,8.68
2018-02-14T01:34:56.196Z,8.43
2018-02-14T01:37:38.935Z,8.43
2018-02-14T01:40:21.611Z,8.59
2018-02-14T01:43:04.398Z,8.64
2018-02-14T01:45:47.418Z,8.16
2018-02-14T01:48:31.315Z,8.09
2018-02-14T01:51:15.342Z,8.26
2018-02-14T01:53:58.198Z,8.40
2018-02-14T01:56:41.476Z,8.59
2018-02-14T01:59:24.680Z,8.27
2018-02-14T02:02:07.800Z,7.55
2018-02-14T02:04:35.402Z,7.26
2018-02-14T02:07:03.436Z,7.08
2018-02-14T02:09:31.626Z,6.99
2018-02-14T02:11:59.206Z,6.85
2018-02-14T02:14:27.035Z,6.76
2018-02-14T02:16:55.368Z,6.78
2018-02-14T02:19:22.916Z,6.80
2018-02-14T02:21:50.507Z,6.76
2018-02-14T02:24:18.088Z,6.81
2018-02-14T02:26:45.672Z,6.96
2018-02-14T02:29:13.258Z,7.27
2018-02-14T02:31:40.804Z,7.61
2018-02-14T02:34:08.359Z,7.96
2018-02-14T02:36:35.957Z,8.11
2018-02-14T02:39:03.595Z,8.30
2018-02-14T02:41:31.141Z,8.42
2018-02-14T02:43:59.533Z,8.58
2018-02-14T02:46:27.119Z,8.56
2018-02-14T02:48:54.666Z,8.59
2018-02-14T02:51:22.355Z,8.69
2018-02-14T02:53:49.894Z,8.78
2018-02-14T02:56:17.870Z,8.70
2018-02-14T02:58:45.467Z,8.68
2018-02-14T03:01:13.068Z,8.44
2018-02-14T03:03:41.366Z,8.58
2018-02-14T03:06:08.922Z,8.65
2018-02-14T03:08:36.507Z,8.56
2018-02-14T03:11:04.626Z,8.50
2018-02-14T03:13:32.167Z,8.60
2018-02-14T03:15:59.776Z,8.72
2018-02-14T03:18:27.363Z,8.59
2018-02-14T03:20:55.424Z,8.22
2018-02-14T03:23:23.443Z,8.06
2018-02-14T03:25:51.026Z,8.18
2018-02-14T03:28:19.140Z,8.32
2018-02-14T03:30:46.748Z,8.27
2018-02-14T03:33:15.421Z,7.93
2018-02-14T03:35:42.972Z,7.68
2018-02-14T03:38:10.526Z,7.25
2018-02-14T03:40:38.114Z,7.03
2018-02-14T03:43:05.742Z,6.86
2018-02-14T03:45:33.322Z,6.98
2018-02-14T03:48:00.923Z,7.05
2018-02-14T03:50:28.489Z,7.20
2018-02-14T03:52:56.413Z,7.48
2018-02-14T03:55:23.965Z,7.24
2018-02-14T03:57:51.827Z,7.12
2018-02-14T04:00:19.776Z,7.24
2018-02-14T04:02:47.319Z,7.28
2018-02-14T04:05:14.956Z,7.13
2018-02-14T04:07:43.192Z,6.92
2018-02-14T04:10:10.743Z,6.97
2018-02-14T04:12:38.322Z,7.31
2018-02-14T04:15:05.888Z,7.55
2018-02-14T04:17:34.036Z,7.74
2018-02-14T04:20:01.585Z,7.86
2018-02-14T04:22:29.207Z,7.63
2018-02-14T04:24:56.825Z,7.48
2018-02-14T04:27:24.380Z,7.51
2018-02-14T04:29:51.981Z,7.79
2018-02-14T04:32:19.894Z,7.54
2018-02-14T04:34:47.476Z,7.22
2018-02-14T04:37:15.218Z,7.08
2018-02-14T04:39:42.815Z,7.27
2018-02-14T04:42:10.761Z,7.25
2018-02-14T04:44:39.338Z,7.12
2018-02-14T04:47:07.999Z,6.96
2018-02-14T04:49:35.545Z,6.91
2018-02-14T04:52:03.747Z,7.13
2018-02-14T04:54:31.291Z,7.46
2018-02-14T04:56:59.707Z,7.46
2018-02-14T04:59:27.260Z,7.69
2018-02-14T05:01:55.100Z,7.77
2018-02-14T05:04:23.198Z,7.77
2018-02-14T05:06:50.748Z,8.05
2018-02-14T05:09:19.270Z,8.27
2018-02-14T05:11:46.811Z,8.23
2018-02-14T05:14:14.408Z,8.27
2018-02-14T05:16:41.959Z,7.94
2018-02-14T05:19:10.487Z,7.59
2018-02-14T05:21:38.066Z,7.87
2018-02-14T05:24:06.005Z,8.14
2018-02-14T05:26:33.557Z,8.22
2018-02-14T05:29:01.378Z,8.18
2018-02-14T05:31:29.211Z,7.72
2018-02-14T05:33:57.257Z,7.50
2018-02-14T05:36:25.411Z,7.44
2018-02-14T05:38:53.171Z,7.38
2018-02-14T05:41:20.728Z,7.39
2018-02-14T05:43:48.429Z,7.36
2018-02-14T05:46:16.197Z,7.38
2018-02-14T05:48:44.882Z,7.69
2018-02-14T05:51:12.480Z,7.69
2018-02-14T05:53:40.194Z,7.77
2018-02-14T05:56:07.791Z,7.78
2018-02-14T05:58:35.662Z,8.06
2018-02-14T06:01:04.144Z,8.34
2018-02-14T06:03:31.737Z,8.39
2018-02-14T06:05:59.537Z,8.05
2018-02-14T06:08:27.144Z,7.97
2018-02-14T06:10:55.540Z,7.87
2018-02-14T06:13:23.520Z,7.83
2018-02-14T06:15:51.509Z,8.21
2018-02-14T06:18:19.130Z,8.55
2018-02-14T06:20:46.725Z,8.86
2018-02-14T06:23:14.315Z,9.01
2018-02-14T06:25:43.303Z,9.17
2018-02-14T06:28:10.868Z,9.11
2018-02-14T06:30:38.859Z,8.67
2018-02-14T06:33:06.457Z,8.29
2018-02-14T06:35:34.078Z,8.06
2018-02-14T06:38:01.954Z,7.95
2018-02-14T06:40:30.268Z,7.99
2018-02-14T06:42:57.876Z,8.11
2018-02-14T06:45:25.586Z,8.08
2018-02-14T06:47:53.131Z,8.20
2018-02-14T06:50:20.738Z,8.37
2018-02-14T06:52:48.331Z,8.27
2018-02-14T06:55:15.934Z,8.28
2018-02-14T06:57:43.808Z,8.42
2018-02-14T07:00:12.727Z,8.44
2018-02-14T07:02:40.383Z,8.19
2018-02-14T07:05:08.390Z,8.00
2018-02-14T07:07:37.323Z,7.89
2018-02-14T07:10:05.858Z,7.82
2018-02-14T07:12:33.554Z,7.70
2018-02-14T07:15:01.528Z,7.83
2018-02-14T07:17:29.087Z,7.71
2018-02-14T07:19:57.056Z,7.77
2018-02-14T07:22:24.620Z,7.74
2018-02-14T07:24:52.195Z,7.60
2018-02-14T07:27:19.895Z,7.72
2018-02-14T07:29:47.638Z,7.94
2018-02-14T07:32:15.190Z,8.04
2018-02-14T07:34:42.862Z,8.09
2018-02-14T07:37:10.451Z,8.11
2018-02-14T07:39:38.759Z,8.10
2018-02-14T07:42:06.915Z,7.94
2018-02-14T07:44:34.473Z,7.78
2018-02-14T07:47:02.133Z,7.61
2018-02-14T07:49:29.728Z,7.71
2018-02-14T07:51:57.279Z,7.76
2018-02-14T07:54:25.602Z,7.90
2018-02-14T07:56:54.032Z,8.07
2018-02-14T07:59:21.957Z,8.20
2018-02-14T08:01:49.571Z,8.26
2018-02-14T08:04:17.168Z,8.35
2018-02-14T08:06:44.759Z,8.35
2018-02-14T08:09:13.233Z,8.43
2018-02-14T08:11:41.072Z,8.42
2018-02-14T08:14:08.641Z,8.45
2018-02-14T08:16:36.261Z,8.37
2018-02-14T08:19:03.821Z,8.30
2018-02-14T08:21:31.505Z,8.34
2018-02-14T08:23:59.096Z,8.43
2018-02-14T08:26:26.641Z,8.51
2018-02-14T08:28:54.737Z,8.59
2018-02-14T08:31:22.795Z,8.64
2018-02-14T08:33:50.368Z,8.59
2018-02-14T08:36:18.151Z,8.69
2018-02-14T08:38:45.912Z,8.75
2018-02-14T08:41:13.829Z,8.78
2018-02-14T08:43:41.629Z,8.60
2018-02-14T08:46:10.615Z,8.62
2018-02-14T08:48:38.173Z,8.54
2018-02-14T08:51:05.727Z,8.76
2018-02-14T08:53:33.336Z,8.75
2018-02-14T08:56:01.675Z,8.76
2018-02-14T08:58:29.262Z,8.85
2018-02-14T09:00:56.834Z,8.88
2018-02-14T09:03:24.481Z,8.89
2018-02-14T09:05:52.456Z,8.84
2018-02-14T09:08:20.093Z,8.72
2018-02-14T09:10:48.009Z,8.66
2018-02-14T09:13:15.718Z,8.67
2018-02-14T09:15:44.137Z,8.53
2018-02-14T09:18:11.737Z,8.66
2018-02-14T09:20:39.288Z,8.78
2018-02-14T09:23:07.016Z,8.65
2018-02-14T09:25:35.392Z,8.74
2018-02-14T09:28:03.832Z,8.73
2018-02-14T09:30:31.794Z,8.73
2018-02-14T09:33:00.564Z,8.73
2018-02-14T09:35:28.154Z,8.73
2018-02-14T09:37:56.454Z,8.85
2018-02-14T09:40:24.010Z,8.96
2018-02-14T09:42:52.364Z,8.89
2018-02-14T09:45:19.991Z,8.87
2018-02-14T09:47:47.582Z,8.71
2018-02-14T09:50:15.854Z,8.63
2018-02-14T09:52:43.515Z,8.64
2018-02-14T09:55:11.058Z,8.76
2018-02-14T09:57:38.624Z,8.76
2018-02-14T10:00:06.858Z,8.74
2018-02-14T10:02:35.354Z,8.64
2018-02-14T10:05:02.940Z,8.70
2018-02-14T10:07:30.539Z,8.77
2018-02-14T10:09:58.290Z,8.76
2018-02-14T10:12:27.154Z,8.74
2018-02-14T10:14:55.071Z,8.73
2018-02-14T10:17:22.629Z,8.70
2018-02-14T10:19:50.187Z,8.77
2018-02-14T10:22:17.776Z,8.88
2018-02-14T10:24:45.380Z,8.88
2018-02-14T10:27:14.159Z,8.95
2018-02-14T10:29:41.903Z,8.98
2018-02-14T10:32:09.647Z,8.89
2018-02-14T10:34:37.248Z,8.95
2018-02-14T10:37:04.912Z,8.89
2018-02-14T10:39:32.459Z,8.93
2018-02-14T10:42:00.404Z,8.96
2018-02-14T10:44:27.972Z,9.07
2018-02-14T10:46:55.969Z,8.94
2018-02-14T10:49:24.637Z,8.91
2018-02-14T10:51:52.230Z,8.82
2018-02-14T10:54:19.831Z,8.77
2018-02-14T10:56:48.640Z,8.63
2018-02-14T10:59:16.824Z,8.71
2018-02-14T11:01:50.431Z,8.66
2018-02-14T11:04:23.843Z,8.69
2018-02-14T11:06:51.418Z,8.72
2018-02-14T11:09:19.035Z,8.86
2018-02-14T11:11:47.493Z,8.85
2018-02-14T11:14:16.020Z,8.94
2018-02-14T11:16:43.620Z,8.94
2018-02-14T11:19:12.249Z,9.05
2018-02-14T11:21:39.880Z,9.03
2018-02-14T11:24:07.779Z,8.94
2018-02-14T11:26:35.316Z,9.12
2018-02-14T11:29:02.915Z,9.03
2018-02-14T11:31:30.471Z,9.07
2018-02-14T11:33:58.050Z,8.95
2018-02-14T11:36:25.629Z,8.96
2018-02-14T11:38:53.236Z,8.94
2018-02-14T11:41:20.835Z,9.05
2018-02-14T11:43:49.212Z,9.13
2018-02-14T11:46:16.901Z,8.95
2018-02-14T11:48:45.362Z,8.99
2018-02-14T11:51:14.023Z,9.00
2018-02-14T11:53:42.290Z,9.04
2018-02-14T11:56:09.925Z,8.82
2018-02-14T11:58:37.515Z,8.69
2018-02-14T12:01:05.047Z,8.98
2018-02-14T12:03:32.643Z,8.90
2018-02-14T12:06:00.344Z,8.93
2018-02-14T12:08:28.917Z,9.03
2018-02-14T12:10:57.106Z,9.02
2018-02-14T12:13:25.376Z,9.04
2018-02-14T12:15:52.974Z,9.08
2018-02-14T12:18:20.725Z,9.10
2018-02-14T12:20:48.298Z,9.20
2018-02-14T12:23:16.214Z,9.29
2018-02-14T12:25:45.511Z,9.29
2018-02-14T12:28:13.113Z,9.21
2018-02-14T12:30:41.079Z,9.36
2018-02-14T12:33:08.847Z,9.51
2018-02-14T12:35:38.651Z,9.55
2018-02-14T12:38:06.633Z,9.56
2018-02-14T12:40:34.188Z,9.55
2018-02-14T12:43:02.737Z,9.54
2018-02-14T12:45:30.430Z,9.41
2018-02-14T12:47:58.303Z,9.59
2018-02-14T12:50:25.840Z,9.60
2018-02-14T12:52:54.563Z,9.58
2018-02-14T12:55:22.604Z,9.44
2018-02-14T12:57:50.411Z,9.46
2018-02-14T13:00:19.689Z,9.53
2018-02-14T13:02:47.258Z,9.47
2018-02-14T13:05:14.860Z,9.34
2018-02-14T13:07:43.364Z,9.32
2018-02-14T13:10:10.958Z,9.28
2018-02-14T13:12:38.542Z,9.25
2018-02-14T13:15:06.948Z,9.23
2018-02-14T13:17:34.686Z,9.20
2018-02-14T13:20:02.289Z,9.24
2018-02-14T13:22:31.439Z,9.15
2018-02-14T13:24:59.455Z,9.10
2018-02-14T13:27:26.999Z,8.92
2018-02-14T13:29:55.138Z,8.90
2018-02-14T13:32:22.731Z,8.85
2018-02-14T13:34:50.275Z,8.89
2018-02-14T13:37:17.877Z,8.81
2018-02-14T13:39:45.541Z,8.74
2018-02-14T13:42:13.946Z,8.86
2018-02-14T13:44:41.871Z,8.91
2018-02-14T13:47:09.408Z,8.92
2018-02-14T13:49:37.017Z,8.85
2018-02-14T13:52:04.722Z,8.77
2018-02-14T13:54:32.269Z,8.75
2018-02-14T13:57:00.076Z,8.82
2018-02-14T13:59:29.433Z,8.87
2018-02-14T14:01:56.982Z,8.80
2018-02-14T14:04:25.310Z,8.76
2018-02-14T14:06:52.909Z,8.76
2018-02-14T14:09:20.465Z,8.75
2018-02-14T14:11:48.910Z,8.83
2018-02-14T14:14:17.051Z,8.78
2018-02-14T14:16:45.063Z,8.87
2018-02-14T14:19:13.154Z,8.73
2018-02-14T14:21:41.471Z,8.67
2018-02-14T14:24:09.032Z,8.75
2018-02-14T14:26:37.435Z,8.61
2018-02-14T14:29:05.040Z,8.51
2018-02-14T14:31:32.617Z,8.62
2018-02-14T14:34:00.932Z,8.54
2018-02-14T14:36:29.089Z,8.61
2018-02-14T14:38:57.100Z,8.56
2018-02-14T14:41:24.681Z,8.57
2018-02-14T14:43:53.114Z,8.60
2018-02-14T14:46:20.680Z,8.56
2018-02-14T14:48:49.982Z,8.65
2018-02-14T14:51:17.611Z,8.54
2018-02-14T14:53:47.652Z,8.63
2018-02-14T14:56:16.016Z,8.56
2018-02-14T14:58:44.750Z,8.65
2018-02-14T15:01:12.480Z,8.64
2018-02-14T15:03:41.516Z,8.65
2018-02-14T15:06:09.580Z,8.62
2018-02-14T15:08:37.195Z,8.66
2018-02-14T15:11:05.082Z,8.72
2018-02-14T15:13:32.910Z,8.69
2018-02-14T15:16:01.492Z,8.66
2018-02-14T15:18:29.351Z,8.51
2018-02-14T15:20:57.060Z,8.38
2018-02-14T15:23:25.864Z,8.46
2018-02-14T15:25:53.699Z,8.50
2018-02-14T15:28:21.829Z,8.53
2018-02-14T15:30:50.279Z,8.44
2018-02-14T15:33:18.733Z,8.46
2018-02-14T15:35:46.281Z,8.53
2018-02-14T15:38:14.128Z,8.61
2018-02-14T15:40:41.724Z,8.68
2018-02-14T15:43:09.748Z,8.76
2018-02-14T15:45:37.699Z,8.79
2018-02-14T15:48:05.536Z,8.85
2018-02-14T15:50:33.306Z,8.77
2018-02-14T15:53:01.589Z,8.70
2018-02-14T15:55:29.156Z,8.69
2018-02-14T15:57:57.580Z,8.62
2018-02-14T16:00:26.796Z,8.67
2018-02-14T16:02:54.342Z,8.76
2018-02-14T16:05:22.074Z,8.79
2018-02-14T16:07:51.125Z,8.90
2018-02-14T16:10:19.282Z,8.96
2018-02-14T16:12:47.456Z,8.85
2018-02-14T16:15:15.219Z,8.76
2018-02-14T16:17:43.614Z,8.81
2018-02-14T16:20:12.066Z,8.81
2018-02-14T16:22:39.720Z,8.83
2018-02-14T16:25:07.634Z,8.81
2018-02-14T16:27:35.188Z,8.84
2018-02-14T16:30:02.789Z,8.87
2018-02-14T16:32:30.376Z,8.84
2018-02-14T16:34:57.958Z,8.70
2018-02-14T16:37:25.511Z,8.67
2018-02-14T16:39:53.093Z,8.69
2018-02-14T16:42:21.048Z,8.67
2018-02-14T16:44:48.639Z,8.61
2018-02-14T16:47:16.934Z,8.68
2018-02-14T16:49:45.672Z,8.67
2018-02-14T16:52:14.103Z,8.62
2018-02-14T16:54:41.716Z,8.65
2018-02-14T16:57:09.411Z,8.54
2018-02-14T16:59:38.173Z,8.58
2018-02-14T17:02:06.144Z,8.60
2018-02-14T17:04:33.779Z,8.62
2018-02-14T17:07:01.334Z,8.61
2018-02-14T17:09:29.298Z,8.56
2018-02-14T17:11:57.282Z,8.60
2018-02-14T17:14:24.830Z,8.63
2018-02-14T17:16:52.375Z,8.57
2018-02-14T17:19:19.979Z,8.50
2018-02-14T17:21:47.768Z,8.44
2018-02-14T17:24:15.340Z,8.54
2018-02-14T17:26:43.782Z,8.38
2018-02-14T17:29:12.534Z,8.31
2018-02-14T17:31:41.451Z,8.27
2018-02-14T17:34:09.021Z,8.36
2018-02-14T17:36:37.019Z,8.39
2018-02-14T17:39:04.608Z,8.43
2018-02-14T17:41:32.219Z,8.45
2018-02-14T17:43:59.771Z,8.55
2018-02-14T17:46:27.890Z,8.71
2018-02-14T17:48:55.884Z,8.70
2018-02-14T17:51:24.162Z,8.68
2018-02-14T17:53:51.708Z,8.65
2018-02-14T17:56:19.300Z,8.43
2018-02-14T17:58:46.887Z,8.44
2018-02-14T18:01:14.889Z,8.47
2018-02-14T18:03:42.500Z,8.41
2018-02-14T18:06:10.092Z,8.51
2018-02-14T18:08:38.636Z,8.55
2018-02-14T18:11:06.223Z,8.63
2018-02-14T18:13:34.100Z,8.51
2018-02-14T18:16:02.588Z,8.40
2018-02-14T18:18:30.139Z,8.40
2018-02-14T18:20:57.741Z,8.24
2018-02-14T18:23:25.294Z,8.23
2018-02-14T18:25:54.044Z,8.34
2018-02-14T18:28:22.284Z,8.39
2018-02-14T18:30:50.360Z,8.38
2018-02-14T18:33:17.946Z,8.41
2018-02-14T18:35:45.842Z,8.51
2018-02-14T18:38:14.590Z,8.56
2018-02-14T18:40:42.959Z,8.51
2018-02-14T18:43:10.554Z,8.47
2018-02-14T18:45:40.368Z,8.57
2018-02-14T18:48:07.982Z,8.50
2018-02-14T18:50:35.536Z,8.43
2018-02-14T18:53:03.082Z,8.27
2018-02-14T18:55:32.314Z,8.19
2018-02-14T18:58:00.534Z,8.31
2018-02-14T19:00:28.920Z,8.39
2018-02-14T19:02:57.249Z,8.35
2018-02-14T19:05:24.869Z,8.35
2018-02-14T19:07:53.133Z,8.24
2018-02-14T19:10:20.741Z,8.13
2018-02-14T19:12:50.364Z,7.93
2018-02-14T19:15:17.954Z,7.93
2018-02-14T19:17:45.772Z,8.03
2018-02-14T19:20:14.121Z,8.16
2018-02-14T19:22:43.092Z,8.20
2018-02-14T19:25:10.967Z,8.17
2018-02-14T19:27:39.121Z,8.11
2018-02-14T19:30:06.662Z,8.15
2018-02-14T19:32:35.093Z,8.19
2018-02-14T19:35:02.721Z,8.15
2018-02-14T19:37:31.181Z,8.29
2018-02-14T19:39:58.783Z,8.42
2018-02-14T19:42:26.347Z,8.28
2018-02-14T19:44:53.974Z,8.28
2018-02-14T19:47:21.520Z,8.39
2018-02-14T19:49:50.411Z,8.41
2018-02-14T19:52:19.199Z,8.31
2018-02-14T19:54:47.605Z,8.40
2018-02-14T19:57:15.163Z,8.39
2018-02-14T19:59:42.769Z,8.31
2018-02-14T20:02:10.487Z,8.34
2018-02-14T20:04:38.035Z,8.42
2018-02-14T20:07:06.273Z,8.30
2018-02-14T20:09:33.819Z,8.24
2018-02-14T20:12:01.379Z,8.23
2018-02-14T20:14:29.442Z,8.23
2018-02-14T20:16:58.161Z,8.29
2018-02-14T20:19:28.204Z,8.29
2018-02-14T20:21:56.313Z,8.16
2018-02-14T20:24:25.172Z,8.26
2018-02-14T20:26:52.715Z,8.24
2018-02-14T20:29:20.312Z,8.20
2018-02-14T20:31:47.859Z,8.22
2018-02-14T20:34:15.462Z,8.16
2018-02-14T20:36:44.048Z,8.11
2018-02-14T20:39:12.737Z,8.10
2018-02-14T20:41:41.558Z,8.17
2018-02-14T20:44:10.314Z,8.15
2018-02-14T20:46:38.085Z,8.23
2018-02-14T20:49:07.353Z,8.21
2018-02-14T20:51:35.149Z,7.95
2018-02-14T20:54:02.720Z,8.05
2018-02-14T20:56:30.307Z,7.98
2018-02-14T20:59:00.055Z,7.94
2018-02-14T21:01:27.658Z,7.77
2018-02-14T21:03:55.938Z,7.64
2018-02-14T21:06:23.892Z,7.62
2018-02-14T21:08:51.639Z,7.64
2018-02-14T21:11:19.387Z,7.69
2018-02-14T21:13:47.228Z,7.73
2018-02-14T21:16:16.080Z,7.76
2018-02-14T21:18:43.660Z,7.80
2018-02-14T21:21:11.900Z,7.79
2018-02-14T21:23:39.442Z,7.49
2018-02-14T21:26:07.751Z,7.18
2018-02-14T21:28:35.351Z,7.16
2018-02-14T21:31:02.955Z,7.11
2018-02-14T21:33:30.560Z,6.92
2018-02-14T21:35:58.112Z,6.83
2018-02-14T21:38:25.672Z,6.80
2018-02-14T21:40:53.908Z,6.70
2018-02-14T21:43:21.500Z,6.21
2018-02-14T21:45:49.219Z,6.19
2018-02-14T21:48:16.810Z,6.39
2018-02-14T21:50:44.401Z,6.35
2018-02-14T21:53:11.944Z,6.48
2018-02-14T21:55:39.914Z,6.65
2018-02-14T21:58:07.512Z,6.58
2018-02-14T22:00:35.869Z,6.54
2018-02-14T22:03:03.832Z,6.64
2018-02-14T22:05:32.414Z,6.79
2018-02-14T22:08:00.262Z,6.86
2018-02-14T22:10:28.664Z,6.96
2018-02-14T22:12:56.274Z,6.98
2018-02-14T22:15:23.826Z,6.80
2018-02-14T22:17:52.452Z,6.74
2018-02-14T22:20:20.356Z,6.50
2018-02-14T22:22:47.976Z,6.32
2018-02-14T22:25:15.524Z,6.16
2018-02-14T22:27:43.106Z,6.18
2018-02-14T22:30:10.654Z,6.09
2018-02-14T22:32:38.684Z,6.03
2018-02-14T22:35:06.788Z,6.02
2018-02-14T22:37:34.370Z,6.06
2018-02-14T22:40:02.657Z,5.86
2018-02-14T22:42:30.376Z,5.77
2018-02-14T22:44:58.803Z,5.86
2018-02-14T22:47:26.416Z,5.73
2018-02-14T22:49:53.979Z,5.80
2018-02-14T22:52:21.546Z,5.84
2018-02-14T22:54:49.819Z,5.74
2018-02-14T22:57:17.366Z,5.68
2018-02-14T22:59:45.474Z,5.41
2018-02-14T23:02:13.045Z,5.51
2018-02-14T23:04:40.635Z,5.62
2018-02-14T23:07:08.243Z,5.83
2018-02-14T23:09:35.847Z,5.75
2018-02-14T23:12:03.391Z,5.82
2018-02-14T23:14:30.974Z,5.52
2018-02-14T23:16:59.077Z,5.52
2018-02-14T23:19:26.684Z,5.74
2018-02-14T23:21:55.149Z,6.00
2018-02-14T23:24:22.700Z,6.04
2018-02-14T23:26:51.190Z,6.13
2018-02-14T23:29:18.739Z,6.34
2018-02-14T23:31:46.439Z,6.39
2018-02-14T23:34:14.036Z,6.34
2018-02-14T23:36:41.630Z,6.46
2018-02-14T23:39:09.181Z,6.39
2018-02-14T23:41:37.329Z,6.34
2018-02-14T23:44:04.910Z,6.32
2018-02-14T23:46:33.294Z,6.12
2018-02-14T23:49:00.912Z,6.06
2018-02-14T23:51:28.459Z,6.04
2018-02-14T23:53:56.860Z,5.84
2018-02-14T23:56:25.139Z,5.76
2018-02-14T23:58:52.684Z,5.73
